createdAt,value
2023-05-14T00:01:14.867Z,8.12
2023-05-14T00:03:41.495Z,8.08
2023-05-14T00:06:08.976Z,8.04
2023-05-14T00:08:35.740Z,8.02
2023-05-14T00:11:02.169Z,8.01
2023-05-14T00:13:28.994Z,8.00
2023-05-14T00:15:55.563Z,7.99
2023-05-14T00:18:21.957Z,7.95
2023-05-14T00:20:48.363Z,7.90
2023-05-14T00:23:14.694Z,7.86
2023-05-14T00:25:41.052Z,7.87
2023-05-14T00:28:07.430Z,7.85
2023-05-14T00:30:33.768Z,7.85
2023-05-14T00:33:00.235Z,7.83
2023-05-14T00:35:26.633Z,7.81
2023-05-14T00:37:53.721Z,7.81
2023-05-14T00:40:20.444Z,7.77
2023-05-14T00:42:46.744Z,7.73
2023-05-14T00:45:13.333Z,7.70
2023-05-14T00:47:40.148Z,7.65
2023-05-14T00:50:06.899Z,7.64
2023-05-14T00:52:33.218Z,7.59
2023-05-14T00:54:59.838Z,7.59
2023-05-14T00:57:26.301Z,7.58
2023-05-14T00:59:52.861Z,7.57
2023-05-14T01:02:19.218Z,7.55
2023-05-14T01:04:45.607Z,7.53
2023-05-14T01:07:23.959Z,7.53
2023-05-14T01:09:55.130Z,7.54
2023-05-14T01:12:27.349Z,7.53
2023-05-14T01:15:02.631Z,7.48
2023-05-14T01:17:31.845Z,7.41
2023-05-14T01:19:58.425Z,7.40
2023-05-14T01:22:24.788Z,7.39
2023-05-14T01:24:51.285Z,7.42
2023-05-14T01:27:26.541Z,7.41
2023-05-14T01:30:01.968Z,7.37
2023-05-14T01:32:30.291Z,7.36
2023-05-14T01:34:58.342Z,7.31
2023-05-14T01:37:25.483Z,7.28
2023-05-14T01:39:52.202Z,7.23
2023-05-14T01:42:18.588Z,7.19
2023-05-14T01:44:45.097Z,7.16
2023-05-14T01:47:11.419Z,7.14
2023-05-14T01:49:37.817Z,7.16
2023-05-14T01:52:04.277Z,7.14
2023-05-14T01:54:30.577Z,7.14
2023-05-14T01:56:56.876Z,7.12
2023-05-14T01:59:23.204Z,7.10
2023-05-14T02:01:49.654Z,7.08
2023-05-14T02:04:16.090Z,7.04
2023-05-14T02:06:42.476Z,7.03
2023-05-14T02:09:08.812Z,7.01
2023-05-14T02:11:35.117Z,6.98
2023-05-14T02:14:01.454Z,6.95
2023-05-14T02:16:27.871Z,6.91
2023-05-14T02:18:54.349Z,6.86
2023-05-14T02:21:20.695Z,6.85
2023-05-14T02:23:48.491Z,6.83
2023-05-14T02:26:14.814Z,6.81
2023-05-14T02:28:41.177Z,6.82
2023-05-14T02:31:07.576Z,6.86
2023-05-14T02:33:33.957Z,6.84
2023-05-14T02:36:00.346Z,6.82
2023-05-14T02:38:26.782Z,6.79
2023-05-14T02:40:53.249Z,6.79
2023-05-14T02:43:19.570Z,6.74
2023-05-14T02:45:45.904Z,6.69
2023-05-14T02:48:12.281Z,6.68
2023-05-14T02:50:38.744Z,6.63
2023-05-14T02:53:05.058Z,6.60
2023-05-14T02:55:31.498Z,6.58
2023-05-14T02:57:57.829Z,6.56
2023-05-14T03:00:24.415Z,6.55
2023-05-14T03:02:51.476Z,6.52
2023-05-14T03:05:18.426Z,6.53
2023-05-14T03:07:44.854Z,6.51
2023-05-14T03:10:11.161Z,6.50
2023-05-14T03:12:37.493Z,6.50
2023-05-14T03:15:04.051Z,6.50
2023-05-14T03:17:30.444Z,6.46
2023-05-14T03:19:56.885Z,6.47
2023-05-14T03:22:23.204Z,6.46
2023-05-14T03:24:49.524Z,6.43
2023-05-14T03:27:15.950Z,6.44
2023-05-14T03:29:42.283Z,6.44
2023-05-14T03:32:08.703Z,6.45
2023-05-14T03:34:35.061Z,6.45
2023-05-14T03:37:01.417Z,6.45
2023-05-14T03:39:27.740Z,6.46
2023-05-14T03:41:54.213Z,6.47
2023-05-14T03:44:20.514Z,6.49
2023-05-14T03:46:46.837Z,6.49
2023-05-14T03:49:13.122Z,6.51
2023-05-14T03:51:39.560Z,6.54
2023-05-14T03:54:06.667Z,6.55
2023-05-14T03:56:32.993Z,6.58
2023-05-14T03:58:59.288Z,6.62
2023-05-14T04:01:25.729Z,6.65
2023-05-14T04:03:52.272Z,6.64
2023-05-14T04:06:18.965Z,6.65
2023-05-14T04:08:45.419Z,6.72
2023-05-14T04:11:11.726Z,6.73
2023-05-14T04:13:38.085Z,6.78
2023-05-14T04:16:04.562Z,6.81
2023-05-14T04:18:34.936Z,6.86
2023-05-14T04:21:02.002Z,6.93
2023-05-14T04:23:29.504Z,7.00
2023-05-14T04:25:55.831Z,7.07
2023-05-14T04:28:22.201Z,7.15
2023-05-14T04:30:48.663Z,7.27
2023-05-14T04:33:14.987Z,7.37
2023-05-14T04:35:41.352Z,7.48
2023-05-14T04:38:10.040Z,7.57
2023-05-14T04:40:36.340Z,7.71
2023-05-14T04:43:02.952Z,7.87
2023-05-14T04:45:29.356Z,7.98
2023-05-14T04:47:55.891Z,8.06
2023-05-14T04:50:22.606Z,8.13
2023-05-14T04:52:49.065Z,8.18
2023-05-14T04:55:15.394Z,8.28
2023-05-14T04:57:41.689Z,8.45
2023-05-14T05:00:09.663Z,8.58
2023-05-14T05:02:36.159Z,8.71
2023-05-14T05:05:02.947Z,8.86
2023-05-14T05:07:29.274Z,9.05
2023-05-14T05:09:55.613Z,9.17
2023-05-14T05:12:21.918Z,9.37
2023-05-14T05:14:48.280Z,9.59
2023-05-14T05:17:14.662Z,9.77
2023-05-14T05:19:44.171Z,9.97
2023-05-14T05:22:11.176Z,10.16
2023-05-14T05:24:37.659Z,10.42
2023-05-14T05:27:05.365Z,10.61
2023-05-14T05:29:32.022Z,10.73
2023-05-14T05:31:58.545Z,10.92
2023-05-14T05:34:24.889Z,11.09
2023-05-14T05:36:51.706Z,11.34
2023-05-14T05:39:18.131Z,11.55
2023-05-14T05:41:44.485Z,11.78
2023-05-14T05:44:10.963Z,11.99
2023-05-14T05:46:37.645Z,12.23
2023-05-14T05:49:04.056Z,12.40
2023-05-14T05:51:30.389Z,12.67
2023-05-14T05:53:56.724Z,12.74
2023-05-14T05:56:23.086Z,12.97
2023-05-14T05:58:49.404Z,13.21
2023-05-14T06:01:15.796Z,13.44
2023-05-14T06:03:42.336Z,13.70
2023-05-14T06:06:08.766Z,13.83
2023-05-14T06:08:35.265Z,14.03
2023-05-14T06:11:01.580Z,14.15
2023-05-14T06:13:27.918Z,14.23
2023-05-14T06:15:54.258Z,14.52
2023-05-14T06:18:20.705Z,14.76
2023-05-14T06:20:47.188Z,14.96
2023-05-14T06:23:13.545Z,15.12
2023-05-14T06:25:39.900Z,15.33
2023-05-14T06:28:06.214Z,15.40
2023-05-14T06:30:32.698Z,15.53
2023-05-14T06:32:59.051Z,15.71
2023-05-14T06:35:25.560Z,15.92
2023-05-14T06:37:51.884Z,16.04
2023-05-14T06:40:18.498Z,16.04
2023-05-14T06:42:44.966Z,16.06
2023-05-14T06:45:11.400Z,16.24
2023-05-14T06:47:37.855Z,16.52
2023-05-14T06:50:04.326Z,16.71
2023-05-14T06:52:30.670Z,16.81
2023-05-14T06:54:57.124Z,16.92
2023-05-14T06:57:23.463Z,17.07
2023-05-14T06:59:49.820Z,17.20
2023-05-14T07:02:16.214Z,17.25
2023-05-14T07:04:42.626Z,17.34
2023-05-14T07:07:10.581Z,17.36
2023-05-14T07:09:36.915Z,17.50
2023-05-14T07:12:03.337Z,17.40
2023-05-14T07:14:29.654Z,17.41
2023-05-14T07:16:56.060Z,17.46
2023-05-14T07:19:22.377Z,17.40
2023-05-14T07:21:48.709Z,17.42
2023-05-14T07:24:15.027Z,17.56
2023-05-14T07:26:41.380Z,17.65
2023-05-14T07:29:08.056Z,17.67
2023-05-14T07:31:34.409Z,17.86
2023-05-14T07:34:00.807Z,17.96
2023-05-14T07:36:27.362Z,17.98
2023-05-14T07:38:54.055Z,18.23
2023-05-14T07:41:20.802Z,18.29
2023-05-14T07:43:47.150Z,18.50
2023-05-14T07:46:14.005Z,18.64
2023-05-14T07:48:40.598Z,18.68
2023-05-14T07:51:06.992Z,18.84
2023-05-14T07:53:33.326Z,18.96
2023-05-14T07:56:00.162Z,18.89
2023-05-14T07:58:27.983Z,18.82
2023-05-14T08:00:54.522Z,18.87
2023-05-14T08:03:20.893Z,18.94
2023-05-14T08:05:47.369Z,19.04
2023-05-14T08:08:13.757Z,19.18
2023-05-14T08:10:40.191Z,19.21
2023-05-14T08:13:06.666Z,19.42
2023-05-14T08:15:32.995Z,19.32
2023-05-14T08:18:03.436Z,19.31
2023-05-14T08:20:30.801Z,19.21
2023-05-14T08:22:58.057Z,19.11
2023-05-14T08:25:24.417Z,19.07
2023-05-14T08:27:50.902Z,18.94
2023-05-14T08:30:18.016Z,18.78
2023-05-14T08:32:44.509Z,18.74
2023-05-14T08:35:11.091Z,18.78
2023-05-14T08:37:37.488Z,18.82
2023-05-14T08:40:03.904Z,18.73
2023-05-14T08:42:31.322Z,18.71
2023-05-14T08:45:04.592Z,18.65
2023-05-14T08:47:31.414Z,18.66
2023-05-14T08:50:05.387Z,18.68
2023-05-14T08:52:32.271Z,18.56
2023-05-14T08:55:03.263Z,18.53
2023-05-14T08:57:31.132Z,18.57
2023-05-14T08:59:57.455Z,18.63
2023-05-14T09:02:25.603Z,18.75
2023-05-14T09:05:02.057Z,19.09
2023-05-14T09:07:28.574Z,19.36
2023-05-14T09:09:55.516Z,19.68
2023-05-14T09:12:22.271Z,20.18
2023-05-14T09:14:49.319Z,20.67
2023-05-14T09:17:16.646Z,21.05
2023-05-14T09:19:43.878Z,21.11
2023-05-14T09:22:11.947Z,20.97
2023-05-14T09:24:42.033Z,20.94
2023-05-14T09:27:09.596Z,20.89
2023-05-14T09:29:37.132Z,21.03
2023-05-14T09:32:05.436Z,21.08
2023-05-14T09:34:32.600Z,21.12
2023-05-14T09:37:00.541Z,21.37
2023-05-14T09:39:27.246Z,21.04
2023-05-14T09:41:54.235Z,21.07
2023-05-14T09:44:20.820Z,21.34
2023-05-14T09:46:47.836Z,21.37
2023-05-14T09:49:14.453Z,21.24
2023-05-14T09:51:40.996Z,21.08
2023-05-14T09:54:07.878Z,21.07
2023-05-14T09:56:34.659Z,21.03
2023-05-14T09:59:01.157Z,21.14
2023-05-14T10:01:28.737Z,21.38
2023-05-14T10:03:55.851Z,21.94
2023-05-14T10:06:24.197Z,22.26
2023-05-14T10:08:54.020Z,22.26
2023-05-14T10:11:22.345Z,22.52
2023-05-14T10:13:52.371Z,22.89
2023-05-14T10:16:24.244Z,22.80
2023-05-14T10:18:53.548Z,22.58
2023-05-14T10:21:22.124Z,22.59
2023-05-14T10:23:48.913Z,22.57
2023-05-14T10:26:15.694Z,22.59
2023-05-14T10:28:42.506Z,22.66
2023-05-14T10:31:09.620Z,23.16
2023-05-14T10:33:50.308Z,23.04
2023-05-14T10:36:20.296Z,23.04
2023-05-14T10:38:46.852Z,23.01
2023-05-14T10:41:15.624Z,23.03
2023-05-14T10:43:42.103Z,23.13
2023-05-14T10:46:09.742Z,23.15
2023-05-14T10:48:37.346Z,23.33
2023-05-14T10:51:03.851Z,23.57
2023-05-14T10:53:34.547Z,23.77
2023-05-14T10:56:04.668Z,24.82
2023-05-14T10:58:32.727Z,26.16
2023-05-14T11:00:59.837Z,26.83
2023-05-14T11:03:29.187Z,27.67
2023-05-14T11:05:55.514Z,28.03
2023-05-14T11:08:25.519Z,27.77
2023-05-14T11:10:54.468Z,28.30
2023-05-14T11:13:21.485Z,28.67
2023-05-14T11:15:48.746Z,28.20
2023-05-14T11:18:26.260Z,27.63
2023-05-14T11:20:52.650Z,27.55
2023-05-14T11:23:18.966Z,27.12
2023-05-14T11:25:45.422Z,28.03
2023-05-14T11:28:12.008Z,28.71
2023-05-14T11:30:38.396Z,28.93
2023-05-14T11:33:04.886Z,28.33
2023-05-14T11:35:32.344Z,27.75
2023-05-14T11:37:58.635Z,26.95
2023-05-14T11:40:25.046Z,26.01
2023-05-14T11:42:53.256Z,25.76
2023-05-14T11:45:26.567Z,25.18
2023-05-14T11:47:54.731Z,24.87
2023-05-14T11:50:22.119Z,24.81
2023-05-14T11:52:50.712Z,24.46
2023-05-14T11:55:17.418Z,24.27
2023-05-14T11:57:43.914Z,24.26
2023-05-14T12:00:13.458Z,24.73
2023-05-14T12:02:40.031Z,25.44
2023-05-14T12:05:11.612Z,27.05
2023-05-14T12:07:39.099Z,28.99
2023-05-14T12:10:05.997Z,29.41
2023-05-14T12:12:36.694Z,28.78
2023-05-14T12:15:10.209Z,28.48
2023-05-14T12:17:37.761Z,27.17
2023-05-14T12:20:04.353Z,26.51
2023-05-14T12:22:30.780Z,25.51
2023-05-14T12:24:58.536Z,25.91
2023-05-14T12:27:31.178Z,26.36
2023-05-14T12:30:19.222Z,27.17
2023-05-14T12:32:50.339Z,27.67
2023-05-14T12:35:16.689Z,26.92
2023-05-14T12:37:43.262Z,26.24
2023-05-14T12:40:10.156Z,25.65
2023-05-14T12:42:36.674Z,25.16
2023-05-14T12:45:05.593Z,25.33
2023-05-14T12:47:32.389Z,25.26
2023-05-14T12:49:58.780Z,24.67
2023-05-14T12:52:36.767Z,24.52
2023-05-14T12:55:04.811Z,24.76
2023-05-14T12:57:31.249Z,24.23
2023-05-14T12:59:57.711Z,24.92
2023-05-14T13:02:24.087Z,26.63
2023-05-14T13:04:50.550Z,28.22
2023-05-14T13:07:16.970Z,28.03
2023-05-14T13:09:43.292Z,26.89
2023-05-14T13:12:09.749Z,25.32
2023-05-14T13:14:36.433Z,24.22
2023-05-14T13:17:03.230Z,23.74
2023-05-14T13:19:29.590Z,23.58
2023-05-14T13:21:55.945Z,23.79
2023-05-14T13:24:22.426Z,23.68
2023-05-14T13:26:48.760Z,23.91
2023-05-14T13:29:15.064Z,24.44
2023-05-14T13:31:41.440Z,25.31
2023-05-14T13:34:08.790Z,25.68
2023-05-14T13:36:39.520Z,26.05
2023-05-14T13:39:06.485Z,25.40
2023-05-14T13:41:35.658Z,24.64
2023-05-14T13:44:02.013Z,25.10
2023-05-14T13:46:28.737Z,25.86
2023-05-14T13:48:55.555Z,25.78
2023-05-14T13:51:24.624Z,25.56
2023-05-14T13:53:51.061Z,25.08
2023-05-14T13:56:17.462Z,24.78
2023-05-14T13:58:47.590Z,24.04
2023-05-14T14:01:14.006Z,23.59
2023-05-14T14:03:40.353Z,23.07
2023-05-14T14:06:06.790Z,22.79
2023-05-14T14:08:33.115Z,22.64
2023-05-14T14:10:59.492Z,22.52
2023-05-14T14:13:26.031Z,22.50
2023-05-14T14:15:52.463Z,22.52
2023-05-14T14:18:18.868Z,22.46
2023-05-14T14:20:45.296Z,22.65
2023-05-14T14:23:12.016Z,22.54
2023-05-14T14:25:38.612Z,22.66
2023-05-14T14:28:05.145Z,22.60
2023-05-14T14:30:32.363Z,22.66
2023-05-14T14:33:01.266Z,22.62
2023-05-14T14:35:27.765Z,23.52
2023-05-14T14:37:55.621Z,24.22
2023-05-14T14:40:23.997Z,24.89
2023-05-14T14:42:50.635Z,25.68
2023-05-14T14:45:17.342Z,26.42
2023-05-14T14:47:46.750Z,26.88
2023-05-14T14:50:13.596Z,27.36
2023-05-14T14:52:40.316Z,27.67
2023-05-14T14:55:06.789Z,27.81
2023-05-14T14:57:33.095Z,28.05
2023-05-14T15:00:00.865Z,27.57
2023-05-14T15:02:29.055Z,26.52
2023-05-14T15:04:55.746Z,25.69
2023-05-14T15:07:22.634Z,25.23
2023-05-14T15:09:49.246Z,25.95
2023-05-14T15:12:17.012Z,26.41
2023-05-14T15:14:43.465Z,26.95
2023-05-14T15:17:10.419Z,26.51
2023-05-14T15:19:36.986Z,25.56
2023-05-14T15:22:03.685Z,25.62
2023-05-14T15:24:29.982Z,25.95
2023-05-14T15:26:56.287Z,26.05
2023-05-14T15:29:22.625Z,25.41
2023-05-14T15:31:49.027Z,25.11
2023-05-14T15:34:15.448Z,24.87
2023-05-14T15:36:42.025Z,24.30
2023-05-14T15:39:10.252Z,23.93
2023-05-14T15:41:36.935Z,23.50
2023-05-14T15:44:03.344Z,23.19
2023-05-14T15:46:30.294Z,22.83
2023-05-14T15:48:57.597Z,22.56
2023-05-14T15:51:23.932Z,22.16
2023-05-14T15:53:50.273Z,21.99
2023-05-14T15:56:16.796Z,21.99
2023-05-14T15:58:43.294Z,21.83
2023-05-14T16:01:09.593Z,21.51
2023-05-14T16:03:36.046Z,21.43
2023-05-14T16:06:02.679Z,21.55
2023-05-14T16:08:29.317Z,21.50
2023-05-14T16:10:55.656Z,21.55
2023-05-14T16:13:21.984Z,21.90
2023-05-14T16:15:48.324Z,22.24
2023-05-14T16:18:14.691Z,22.56
2023-05-14T16:20:41.425Z,22.62
2023-05-14T16:23:07.783Z,22.81
2023-05-14T16:25:34.183Z,22.71
2023-05-14T16:28:00.601Z,22.32
2023-05-14T16:30:27.048Z,21.89
2023-05-14T16:32:53.634Z,21.09
2023-05-14T16:35:19.979Z,20.82
2023-05-14T16:37:46.396Z,20.45
2023-05-14T16:40:12.998Z,20.17
2023-05-14T16:42:39.327Z,20.05
2023-05-14T16:45:06.284Z,19.87
2023-05-14T16:47:32.705Z,19.78
2023-05-14T16:49:59.070Z,19.66
2023-05-14T16:52:25.487Z,19.52
2023-05-14T16:54:51.936Z,19.44
2023-05-14T16:57:18.270Z,19.42
2023-05-14T16:59:44.790Z,19.63
2023-05-14T17:02:11.121Z,20.11
2023-05-14T17:04:40.994Z,20.38
2023-05-14T17:07:07.528Z,20.42
2023-05-14T17:09:34.105Z,20.46
2023-05-14T17:12:00.614Z,20.40
2023-05-14T17:14:26.964Z,20.38
2023-05-14T17:16:53.667Z,20.34
2023-05-14T17:19:20.602Z,20.15
2023-05-14T17:21:46.944Z,19.83
2023-05-14T17:24:13.258Z,19.61
2023-05-14T17:26:39.776Z,19.38
2023-05-14T17:29:06.146Z,19.18
2023-05-14T17:31:32.561Z,18.96
2023-05-14T17:33:59.046Z,18.79
2023-05-14T17:36:25.832Z,18.72
2023-05-14T17:38:52.503Z,18.59
2023-05-14T17:41:18.851Z,18.49
2023-05-14T17:43:45.305Z,18.36
2023-05-14T17:46:11.700Z,18.29
2023-05-14T17:48:38.098Z,18.11
2023-05-14T17:51:04.492Z,17.99
2023-05-14T17:53:31.153Z,17.95
2023-05-14T17:55:57.607Z,17.85
2023-05-14T17:58:24.364Z,17.77
2023-05-14T18:00:50.831Z,17.67
2023-05-14T18:03:17.509Z,17.61
2023-05-14T18:05:43.920Z,17.57
2023-05-14T18:08:10.335Z,17.53
2023-05-14T18:10:36.794Z,17.38
2023-05-14T18:13:03.340Z,17.26
2023-05-14T18:15:31.555Z,17.13
2023-05-14T18:17:58.015Z,16.97
2023-05-14T18:20:24.409Z,16.85
2023-05-14T18:22:51.395Z,16.69
2023-05-14T18:25:17.905Z,16.54
2023-05-14T18:27:45.308Z,16.46
2023-05-14T18:30:12.995Z,16.35
2023-05-14T18:32:40.166Z,16.20
2023-05-14T18:35:08.157Z,16.04
2023-05-14T18:40:02.418Z,15.79
2023-05-14T18:42:28.798Z,15.61
2023-05-14T18:44:55.156Z,15.52
2023-05-14T18:47:21.514Z,15.39
2023-05-14T18:49:47.944Z,15.33
2023-05-14T18:52:14.245Z,15.18
2023-05-14T18:54:40.655Z,15.05
2023-05-14T18:57:07.082Z,14.93
2023-05-14T18:59:33.420Z,14.81
2023-05-14T19:01:59.848Z,14.71
2023-05-14T19:04:26.714Z,14.55
2023-05-14T19:06:53.041Z,14.47
2023-05-14T19:09:21.216Z,14.36
2023-05-14T19:11:47.755Z,14.23
2023-05-14T19:14:14.139Z,14.11
2023-05-14T19:16:40.763Z,14.03
2023-05-14T19:19:07.644Z,13.93
2023-05-14T19:21:34.125Z,13.83
2023-05-14T19:24:00.573Z,13.74
2023-05-14T19:26:27.047Z,13.67
2023-05-14T19:28:58.325Z,13.54
2023-05-14T19:31:27.955Z,13.45
2023-05-14T19:33:54.614Z,13.34
2023-05-14T19:36:21.047Z,13.28
2023-05-14T19:38:48.108Z,13.22
2023-05-14T19:41:14.840Z,13.16
2023-05-14T19:43:41.390Z,13.09
2023-05-14T19:46:07.808Z,12.99
2023-05-14T19:48:34.354Z,12.93
2023-05-14T19:51:00.706Z,12.84
2023-05-14T19:53:29.920Z,12.80
2023-05-14T19:55:57.151Z,12.74
2023-05-14T19:58:23.840Z,12.68
2023-05-14T20:00:54.461Z,12.56
2023-05-14T20:03:23.677Z,12.48
2023-05-14T20:05:50.076Z,12.45
2023-05-14T20:08:16.694Z,12.40
2023-05-14T20:10:44.702Z,12.32
2023-05-14T20:13:11.040Z,12.24
2023-05-14T20:15:37.514Z,12.18
2023-05-14T20:18:03.966Z,12.09
2023-05-14T20:20:33.240Z,12.00
2023-05-14T20:23:00.217Z,11.91
2023-05-14T20:25:28.331Z,11.85
2023-05-14T20:27:55.251Z,11.80
2023-05-14T20:30:21.611Z,11.73
2023-05-14T20:32:48.070Z,11.67
2023-05-14T20:35:14.494Z,11.60
2023-05-14T20:37:41.343Z,11.54
2023-05-14T20:40:10.358Z,11.42
2023-05-14T20:42:36.995Z,11.35
2023-05-14T20:45:03.834Z,11.25
2023-05-14T20:47:31.953Z,11.17
2023-05-14T20:49:58.420Z,11.09
2023-05-14T20:52:24.794Z,11.02
2023-05-14T20:54:51.366Z,10.97
2023-05-14T20:57:18.387Z,10.93
2023-05-14T20:59:48.903Z,10.86
2023-05-14T21:02:15.743Z,10.84
2023-05-14T21:04:42.547Z,10.88
2023-05-14T21:07:09.223Z,10.85
2023-05-14T21:09:35.681Z,10.81
2023-05-14T21:12:02.029Z,10.84
2023-05-14T21:14:28.393Z,10.78
2023-05-14T21:16:54.724Z,10.77
2023-05-14T21:19:22.460Z,10.71
2023-05-14T21:21:48.885Z,10.70
2023-05-14T21:24:16.768Z,10.65
2023-05-14T21:26:43.124Z,10.65
2023-05-14T21:29:09.443Z,10.60
2023-05-14T21:31:35.781Z,10.57
2023-05-14T21:34:02.157Z,10.52
2023-05-14T21:36:28.594Z,10.46
2023-05-14T21:38:54.913Z,10.48
2023-05-14T21:41:21.684Z,10.44
2023-05-14T21:43:48.010Z,10.37
2023-05-14T21:46:14.408Z,10.34
2023-05-14T21:48:40.856Z,10.30
2023-05-14T21:51:07.438Z,10.25
2023-05-14T21:53:34.664Z,10.27
2023-05-14T21:56:01.000Z,10.28
2023-05-14T21:58:27.491Z,10.20
2023-05-14T22:00:53.861Z,10.17
2023-05-14T22:03:20.354Z,10.13
2023-05-14T22:05:46.717Z,10.06
2023-05-14T22:08:13.065Z,10.04
2023-05-14T22:10:39.394Z,9.95
2023-05-14T22:13:05.718Z,9.98
2023-05-14T22:15:32.029Z,10.00
2023-05-14T22:17:58.413Z,10.03
2023-05-14T22:20:24.816Z,9.91
2023-05-14T22:22:51.547Z,9.84
2023-05-14T22:25:17.859Z,9.82
2023-05-14T22:27:44.199Z,9.74
2023-05-14T22:30:10.845Z,9.68
2023-05-14T22:32:37.188Z,9.65
2023-05-14T22:35:03.670Z,9.58
2023-05-14T22:37:30.008Z,9.57
2023-05-14T22:39:56.393Z,9.54
2023-05-14T22:42:22.709Z,9.49
2023-05-14T22:44:49.055Z,9.43
2023-05-14T22:47:15.728Z,9.34
2023-05-14T22:49:43.006Z,9.30
2023-05-14T22:52:09.343Z,9.23
2023-05-14T22:54:36.346Z,9.16
2023-05-14T22:57:03.337Z,9.08
2023-05-14T22:59:29.709Z,9.01
2023-05-14T23:01:56.094Z,8.98
2023-05-14T23:04:22.563Z,8.96
2023-05-14T23:06:48.914Z,8.99
2023-05-14T23:09:15.269Z,8.92
2023-05-14T23:11:41.713Z,8.89
2023-05-14T23:14:08.474Z,8.82
2023-05-14T23:16:35.072Z,8.75
2023-05-14T23:19:01.596Z,8.67
2023-05-14T23:21:28.108Z,8.64
2023-05-14T23:23:54.445Z,8.66
2023-05-14T23:26:21.646Z,8.64
2023-05-14T23:28:48.037Z,8.70
2023-05-14T23:31:14.404Z,8.71
2023-05-14T23:33:41.078Z,8.69
2023-05-14T23:36:07.727Z,8.65
2023-05-14T23:38:34.245Z,8.66
2023-05-14T23:41:00.595Z,8.61
2023-05-14T23:43:27.041Z,8.56
2023-05-14T23:45:53.443Z,8.52
2023-05-14T23:48:19.865Z,8.49
2023-05-14T23:50:46.365Z,8.44
2023-05-14T23:53:12.716Z,8.47
2023-05-14T23:55:39.275Z,8.53
2023-05-14T23:58:06.226Z,8.55
